createdAt,value
2022-11-15T00:01:31.808Z,3.40
2022-11-15T00:04:16.996Z,3.60
2022-11-15T00:07:02.328Z,3.92
2022-11-15T00:09:47.554Z,4.32
2022-11-15T00:12:32.678Z,3.60
2022-11-15T00:15:17.916Z,3.10
2022-11-15T00:18:04.708Z,4.07
2022-11-15T00:20:49.889Z,5.07
2022-11-15T00:23:35.209Z,5.33
2022-11-15T00:26:20.468Z,4.97
2022-11-15T00:29:06.533Z,5.20
2022-11-15T00:31:51.619Z,5.05
2022-11-15T00:34:37.130Z,4.77
2022-11-15T00:37:22.477Z,4.70
2022-11-15T00:40:08.820Z,4.07
2022-11-15T00:42:54.109Z,4.43
2022-11-15T00:45:39.285Z,5.22
2022-11-15T00:48:24.626Z,7.70
2022-11-15T00:51:10.058Z,8.68
2022-11-15T00:53:55.523Z,9.50
2022-11-15T00:56:40.710Z,7.00
2022-11-15T00:59:25.855Z,7.78
2022-11-15T01:02:11.297Z,6.25
2022-11-15T01:04:56.388Z,4.63
2022-11-15T01:07:41.696Z,5.13
2022-11-15T01:10:26.971Z,6.95
2022-11-15T01:13:12.280Z,7.25
2022-11-15T01:15:57.767Z,7.47
2022-11-15T01:18:43.728Z,7.72
2022-11-15T01:21:29.241Z,7.72
2022-11-15T01:24:14.923Z,7.33
2022-11-15T01:27:00.165Z,7.70
2022-11-15T01:29:45.688Z,8.07
2022-11-15T01:32:30.748Z,7.68
2022-11-15T01:35:16.321Z,7.50
2022-11-15T01:38:01.588Z,7.55
2022-11-15T01:40:46.895Z,8.43
2022-11-15T01:43:37.317Z,8.20
2022-11-15T01:46:30.496Z,7.65
2022-11-15T01:49:22.156Z,7.32
2022-11-15T01:52:14.091Z,7.40
2022-11-15T01:55:08.778Z,8.70
2022-11-15T01:58:00.772Z,7.88
2022-11-15T02:00:46.238Z,8.63
2022-11-15T02:03:41.198Z,7.38
2022-11-15T02:06:28.129Z,8.43
2022-11-15T02:09:13.902Z,6.70
2022-11-15T02:12:00.754Z,7.35
2022-11-15T02:14:53.600Z,7.25
2022-11-15T02:17:48.078Z,6.00
2022-11-15T02:20:53.661Z,7.10
2022-11-15T02:24:11.075Z,7.13
2022-11-15T02:30:38.842Z,6.45
2022-11-15T02:33:44.388Z,7.05
2022-11-15T02:36:44.675Z,6.18
2022-11-15T02:39:39.003Z,6.60
2022-11-15T02:42:51.133Z,6.55
2022-11-15T02:45:42.614Z,6.38
2022-11-15T02:48:28.009Z,5.00
2022-11-15T02:51:14.204Z,5.60
2022-11-15T02:53:59.751Z,6.43
2022-11-15T02:56:46.942Z,7.07
2022-11-15T02:59:45.200Z,6.65
2022-11-15T03:02:54.824Z,6.28
2022-11-15T03:06:08.247Z,6.28
2022-11-15T03:09:08.253Z,7.93
2022-11-15T03:12:02.126Z,7.07
2022-11-15T03:14:53.234Z,6.60
2022-11-15T03:17:50.041Z,5.65
2022-11-15T03:20:37.317Z,5.82
2022-11-15T03:23:22.911Z,5.25
2022-11-15T03:26:14.921Z,4.40
2022-11-15T03:29:06.066Z,4.65
2022-11-15T03:31:59.828Z,4.88
2022-11-15T03:34:53.413Z,4.50
2022-11-15T03:37:56.795Z,4.30
2022-11-15T03:41:04.888Z,4.13
2022-11-15T03:44:23.846Z,3.50
2022-11-15T03:47:35.361Z,3.40
2022-11-15T03:50:23.219Z,3.65
2022-11-15T03:53:08.822Z,2.83
2022-11-15T03:55:54.141Z,2.78
2022-11-15T03:58:39.463Z,3.90
2022-11-15T04:01:25.006Z,3.13
2022-11-15T04:04:10.209Z,2.95
2022-11-15T04:06:55.532Z,2.70
2022-11-15T04:09:59.236Z,3.90
2022-11-15T04:12:48.588Z,6.00
2022-11-15T04:15:34.211Z,3.65
2022-11-15T04:18:19.544Z,2.95
2022-11-15T04:21:23.047Z,2.60
2022-11-15T04:24:14.160Z,2.60
2022-11-15T04:26:59.855Z,2.53
2022-11-15T04:29:45.009Z,3.05
2022-11-15T04:32:30.159Z,2.43
2022-11-15T04:35:15.443Z,3.03
2022-11-15T04:38:02.240Z,2.90
2022-11-15T04:40:47.774Z,3.05
2022-11-15T04:43:33.221Z,2.70
2022-11-15T04:46:18.803Z,2.75
2022-11-15T04:49:03.937Z,2.70
2022-11-15T04:51:49.360Z,2.80
2022-11-15T04:54:34.665Z,2.80
2022-11-15T04:57:20.048Z,3.53
2022-11-15T05:00:08.275Z,2.97
2022-11-15T05:03:11.956Z,3.88
2022-11-15T05:05:58.863Z,2.67
2022-11-15T05:08:44.170Z,3.10
2022-11-15T05:11:29.370Z,3.03
2022-11-15T05:14:15.662Z,2.85
2022-11-15T05:17:01.377Z,3.40
2022-11-15T05:19:46.466Z,3.40
2022-11-15T05:22:31.679Z,3.03
2022-11-15T05:25:16.832Z,3.60
2022-11-15T05:28:02.107Z,3.58
2022-11-15T05:30:47.282Z,3.90
2022-11-15T05:33:34.455Z,4.40
2022-11-15T05:36:39.753Z,4.57
2022-11-15T05:39:26.996Z,4.97
2022-11-15T05:42:15.241Z,5.25
2022-11-15T05:45:03.066Z,7.22
2022-11-15T05:47:50.110Z,7.85
2022-11-15T05:50:39.613Z,10.70
2022-11-15T05:53:26.696Z,11.52
2022-11-15T05:56:12.830Z,12.52
2022-11-15T05:58:59.903Z,11.77
2022-11-15T06:01:46.075Z,9.32
2022-11-15T06:04:31.424Z,7.63
2022-11-15T06:07:16.689Z,7.70
2022-11-15T06:10:02.071Z,6.43
2022-11-15T06:12:47.350Z,5.65
2022-11-15T06:15:35.912Z,5.05
2022-11-15T06:18:20.828Z,5.68
2022-11-15T06:21:06.731Z,5.23
2022-11-15T06:23:51.750Z,5.40
2022-11-15T06:26:37.107Z,4.97
2022-11-15T06:29:22.318Z,4.38
2022-11-15T06:32:07.558Z,4.57
2022-11-15T06:34:52.860Z,4.97
2022-11-15T06:37:38.059Z,5.13
2022-11-15T06:40:23.409Z,5.47
2022-11-15T06:43:08.936Z,6.20
2022-11-15T06:45:54.312Z,11.90
2022-11-15T06:48:39.716Z,12.05
2022-11-15T06:51:24.968Z,11.55
2022-11-15T06:54:10.233Z,10.63
2022-11-15T06:56:55.270Z,9.23
2022-11-15T06:59:40.968Z,10.10
2022-11-15T07:02:26.844Z,9.98
2022-11-15T07:05:13.313Z,7.00
2022-11-15T07:07:59.800Z,4.40
2022-11-15T07:10:45.102Z,3.85
2022-11-15T07:13:34.800Z,4.05
2022-11-15T07:16:20.400Z,3.85
2022-11-15T07:19:05.741Z,3.00
2022-11-15T07:21:51.137Z,2.97
2022-11-15T07:24:36.301Z,3.60
2022-11-15T07:27:21.692Z,3.53
2022-11-15T07:30:07.612Z,3.47
2022-11-15T07:32:59.426Z,3.75
2022-11-15T07:35:47.423Z,3.80
2022-11-15T07:38:39.416Z,4.40
2022-11-15T07:41:27.806Z,4.47
2022-11-15T07:44:13.111Z,5.40
2022-11-15T07:46:59.061Z,5.00
2022-11-15T07:49:44.081Z,5.40
2022-11-15T07:52:29.279Z,5.17
2022-11-15T07:55:14.604Z,6.13
2022-11-15T07:58:07.725Z,4.73
2022-11-15T08:00:53.057Z,4.50
2022-11-15T08:03:38.759Z,5.45
2022-11-15T08:06:23.826Z,4.95
2022-11-15T08:09:09.027Z,5.30
2022-11-15T08:11:54.230Z,4.57
2022-11-15T08:14:39.828Z,4.97
2022-11-15T08:17:25.651Z,4.28
2022-11-15T08:22:58.080Z,4.07
2022-11-15T08:25:43.344Z,4.97
2022-11-15T08:28:28.837Z,4.80
2022-11-15T08:31:18.827Z,4.90
2022-11-15T08:34:04.895Z,5.20
2022-11-15T08:36:49.815Z,5.43
2022-11-15T08:39:35.057Z,4.73
2022-11-15T08:42:20.596Z,5.18
2022-11-15T08:45:06.255Z,4.45
2022-11-15T08:47:54.369Z,4.65
2022-11-15T08:50:40.035Z,4.93
2022-11-15T08:53:25.198Z,4.77
2022-11-15T08:56:12.215Z,4.97
2022-11-15T08:58:57.615Z,4.97
2022-11-15T09:01:42.729Z,4.93
2022-11-15T09:04:28.264Z,4.28
2022-11-15T09:07:14.679Z,4.40
2022-11-15T09:09:59.978Z,5.18
2022-11-15T09:12:45.319Z,5.07
2022-11-15T09:15:30.872Z,4.55
2022-11-15T09:18:15.847Z,3.77
2022-11-15T09:21:01.412Z,5.53
2022-11-15T09:23:46.936Z,4.15
2022-11-15T09:26:32.129Z,5.10
2022-11-15T09:29:17.459Z,4.53
2022-11-15T09:32:02.781Z,4.78
2022-11-15T09:34:47.962Z,4.97
2022-11-15T09:37:33.393Z,4.47
2022-11-15T09:40:27.226Z,4.70
2022-11-15T09:43:39.161Z,4.20
2022-11-15T09:46:43.385Z,4.60
2022-11-15T09:49:33.351Z,4.50
2022-11-15T09:52:13.165Z,5.28
2022-11-15T09:54:53.223Z,5.40
2022-11-15T09:57:36.125Z,5.55
2022-11-15T10:00:38.856Z,5.55
2022-11-15T10:03:17.360Z,4.40
2022-11-15T10:05:49.677Z,5.35
2022-11-15T10:08:40.994Z,5.45
2022-11-15T10:14:02.845Z,5.82
2022-11-15T10:16:29.435Z,5.68
2022-11-15T10:19:06.303Z,5.28
2022-11-15T10:21:35.712Z,5.68
2022-11-15T10:24:02.313Z,5.40
2022-11-15T10:26:29.314Z,5.75
2022-11-15T10:28:55.902Z,5.85
2022-11-15T10:31:29.003Z,5.93
2022-11-15T10:34:17.138Z,5.68
2022-11-15T10:36:55.004Z,6.75
2022-11-15T10:42:27.868Z,6.38
2022-11-15T10:44:55.185Z,5.63
2022-11-15T10:47:23.980Z,5.38
2022-11-15T10:50:30.334Z,6.15
2022-11-15T10:52:58.137Z,5.60
2022-11-15T10:55:31.823Z,5.47
2022-11-15T10:58:06.554Z,5.55
2022-11-15T11:00:37.203Z,5.72
2022-11-15T11:03:08.106Z,5.35
2022-11-15T11:05:42.557Z,5.70
2022-11-15T11:08:16.979Z,5.75
2022-11-15T11:11:02.111Z,6.57
2022-11-15T11:13:37.919Z,5.88
2022-11-15T11:16:21.196Z,5.53
2022-11-15T11:18:55.403Z,5.05
2022-11-15T11:21:43.769Z,5.25
2022-11-15T11:24:13.159Z,5.70
2022-11-15T11:27:08.270Z,5.47
2022-11-15T11:29:34.874Z,4.53
2022-11-15T11:32:13.458Z,5.00
2022-11-15T11:35:01.558Z,4.93
2022-11-15T11:37:53.541Z,5.05
2022-11-15T11:40:52.718Z,4.93
2022-11-15T11:43:42.642Z,4.88
2022-11-15T11:46:39.076Z,5.07
2022-11-15T11:49:11.755Z,5.47
2022-11-15T11:51:41.334Z,6.13
2022-11-15T11:54:14.025Z,5.82
2022-11-15T11:56:44.215Z,6.18
2022-11-15T11:59:37.305Z,5.07
2022-11-15T12:02:17.404Z,4.30
2022-11-15T12:04:51.141Z,5.75
2022-11-15T12:07:26.445Z,5.07
2022-11-15T12:10:17.099Z,4.97
2022-11-15T12:13:17.699Z,4.78
2022-11-15T12:16:01.479Z,5.40
2022-11-15T12:18:30.677Z,5.73
2022-11-15T12:21:28.092Z,5.80
2022-11-15T12:24:05.053Z,6.38
2022-11-15T12:26:58.306Z,5.85
2022-11-15T12:29:40.107Z,5.80
2022-11-15T12:32:20.729Z,5.65
2022-11-15T12:34:50.169Z,4.75
2022-11-15T12:37:41.579Z,5.57
2022-11-15T12:40:08.320Z,4.68
2022-11-15T12:42:58.048Z,5.07
2022-11-15T12:45:46.200Z,5.32
2022-11-15T12:48:18.788Z,6.47
2022-11-15T12:50:58.970Z,4.97
2022-11-15T12:53:25.670Z,5.63
2022-11-15T12:56:19.950Z,5.82
2022-11-15T12:58:58.731Z,6.07
2022-11-15T13:01:34.712Z,6.03
2022-11-15T13:04:19.881Z,6.10
2022-11-15T13:06:52.635Z,5.80
2022-11-15T13:09:34.606Z,5.82
2022-11-15T13:12:15.823Z,6.10
2022-11-15T13:14:54.193Z,7.43
2022-11-15T13:17:20.770Z,6.95
2022-11-15T13:19:50.016Z,7.32
2022-11-15T13:22:34.997Z,7.38
2022-11-15T13:25:05.380Z,7.60
2022-11-15T13:27:32.268Z,7.57
2022-11-15T13:30:14.920Z,8.00
2022-11-15T13:32:41.576Z,7.80
2022-11-15T13:35:08.414Z,7.30
2022-11-15T13:37:35.434Z,7.05
2022-11-15T13:40:21.640Z,7.22
2022-11-15T13:42:48.371Z,8.27
2022-11-15T13:45:17.942Z,6.47
2022-11-15T13:47:44.790Z,6.57
2022-11-15T13:50:13.742Z,5.95
2022-11-15T13:52:44.239Z,6.95
2022-11-15T13:55:18.586Z,6.55
2022-11-15T13:57:49.288Z,6.93
2022-11-15T14:00:45.547Z,7.18
2022-11-15T14:03:28.858Z,6.88
2022-11-15T14:06:04.795Z,6.47
2022-11-15T14:08:31.955Z,6.00
2022-11-15T14:11:19.877Z,6.50
2022-11-15T14:14:16.640Z,7.55
2022-11-15T14:16:48.910Z,7.53
2022-11-15T14:19:21.218Z,6.97
2022-11-15T14:22:21.229Z,6.88
2022-11-15T14:25:13.605Z,7.13
2022-11-15T14:27:41.669Z,7.50
2022-11-15T14:30:19.175Z,6.68
2022-11-15T14:32:48.752Z,6.88
2022-11-15T14:35:19.620Z,7.47
2022-11-15T14:37:46.619Z,7.68
2022-11-15T14:40:19.228Z,7.53
2022-11-15T14:42:47.706Z,6.90
2022-11-15T14:45:19.569Z,7.07
2022-11-15T14:47:47.015Z,7.32
2022-11-15T14:50:15.619Z,6.25
2022-11-15T14:52:43.235Z,7.65
2022-11-15T14:55:24.315Z,8.23
2022-11-15T14:57:51.433Z,6.65
2022-11-15T15:00:18.215Z,6.25
2022-11-15T15:02:47.081Z,7.00
2022-11-15T15:05:27.312Z,5.97
2022-11-15T15:07:54.425Z,6.53
2022-11-15T15:13:24.274Z,6.90
2022-11-15T15:15:52.777Z,7.40
2022-11-15T15:18:28.401Z,6.28
2022-11-15T15:21:08.523Z,7.00
2022-11-15T15:23:36.510Z,7.78
2022-11-15T15:26:03.772Z,6.95
2022-11-15T15:28:34.635Z,7.25
2022-11-15T15:31:02.306Z,9.70
2022-11-15T15:33:28.903Z,7.30
2022-11-15T15:35:55.550Z,6.72
2022-11-15T15:38:22.646Z,6.07
2022-11-15T15:40:51.503Z,5.35
2022-11-15T15:43:18.445Z,5.80
2022-11-15T15:45:46.009Z,5.40
2022-11-15T15:48:17.759Z,5.30
2022-11-15T15:50:44.660Z,5.82
2022-11-15T15:53:12.870Z,6.45
2022-11-15T15:55:39.782Z,6.35
2022-11-15T15:58:07.226Z,6.70
2022-11-15T16:00:34.682Z,7.07
2022-11-15T16:03:01.277Z,8.38
2022-11-15T16:05:28.163Z,8.68
2022-11-15T16:07:54.802Z,7.93
2022-11-15T16:10:21.430Z,12.60
2022-11-15T16:12:48.487Z,16.45
2022-11-15T16:15:15.824Z,13.52
2022-11-15T16:17:48.287Z,11.60
2022-11-15T16:20:50.467Z,8.60
2022-11-15T16:23:20.918Z,8.30
2022-11-15T16:25:56.330Z,7.85
2022-11-15T16:28:29.306Z,7.68
2022-11-15T16:31:09.903Z,8.70
2022-11-15T16:33:37.545Z,8.90
2022-11-15T16:36:06.288Z,8.98
2022-11-15T16:38:33.501Z,9.80
2022-11-15T16:41:00.422Z,8.52
2022-11-15T16:43:27.139Z,8.73
2022-11-15T16:45:55.014Z,8.15
2022-11-15T16:48:27.114Z,8.98
2022-11-15T16:50:58.331Z,7.97
2022-11-15T16:53:26.393Z,6.80
2022-11-15T16:55:53.713Z,7.60
2022-11-15T16:58:20.823Z,7.40
2022-11-15T17:00:52.099Z,6.90
2022-11-15T17:03:18.925Z,7.57
2022-11-15T17:05:45.571Z,7.25
2022-11-15T17:08:12.464Z,7.65
2022-11-15T17:10:44.169Z,7.30
2022-11-15T17:13:13.773Z,7.53
2022-11-15T17:15:40.475Z,6.63
2022-11-15T17:18:10.867Z,7.70
2022-11-15T17:20:37.635Z,8.35
2022-11-15T17:23:04.204Z,9.23
2022-11-15T17:25:30.873Z,12.82
2022-11-15T17:27:57.539Z,16.52
2022-11-15T17:30:24.147Z,13.68
2022-11-15T17:32:50.925Z,9.27
2022-11-15T17:35:17.734Z,8.02
2022-11-15T17:37:44.344Z,8.63
2022-11-15T17:40:11.816Z,9.13
2022-11-15T17:42:41.153Z,8.63
2022-11-15T17:45:10.318Z,9.40
2022-11-15T17:47:37.680Z,9.57
2022-11-15T17:50:04.816Z,8.10
2022-11-15T17:52:31.475Z,9.98
2022-11-15T17:54:58.178Z,8.07
2022-11-15T17:57:24.768Z,12.15
2022-11-15T17:59:51.441Z,14.57
2022-11-15T18:02:18.048Z,9.60
2022-11-15T18:04:45.108Z,12.80
2022-11-15T18:07:13.843Z,11.18
2022-11-15T18:09:43.692Z,13.10
2022-11-15T18:12:11.654Z,7.88
2022-11-15T18:14:38.421Z,8.02
2022-11-15T18:17:09.209Z,7.75
2022-11-15T18:19:36.818Z,7.07
2022-11-15T18:22:05.424Z,8.48
2022-11-15T18:24:34.792Z,9.27
2022-11-15T18:27:03.552Z,10.38
2022-11-15T18:29:32.328Z,9.30
2022-11-15T18:32:00.876Z,10.07
2022-11-15T18:34:32.831Z,9.38
2022-11-15T18:37:03.001Z,9.35
2022-11-15T18:39:31.157Z,10.52
2022-11-15T18:41:58.936Z,11.13
2022-11-15T18:44:29.898Z,11.77
2022-11-15T18:46:57.905Z,11.40
2022-11-15T18:49:25.079Z,11.20
2022-11-15T18:51:53.272Z,8.38
2022-11-15T18:54:20.216Z,8.43
2022-11-15T18:56:47.486Z,8.30
2022-11-15T18:59:15.036Z,7.57
2022-11-15T19:01:46.480Z,7.95
2022-11-15T19:04:17.405Z,7.93
2022-11-15T19:06:46.791Z,8.75
2022-11-15T19:09:15.995Z,7.25
2022-11-15T19:11:43.879Z,8.13
2022-11-15T19:14:12.972Z,7.78
2022-11-15T19:16:41.486Z,6.85
2022-11-15T19:19:15.172Z,7.65
2022-11-15T19:21:42.547Z,7.22
2022-11-15T19:24:10.544Z,6.82
2022-11-15T19:26:38.048Z,6.43
2022-11-15T19:29:06.299Z,6.40
2022-11-15T19:31:33.204Z,6.72
2022-11-15T19:34:03.334Z,6.30
2022-11-15T19:36:41.358Z,6.40
2022-11-15T19:39:13.195Z,7.68
2022-11-15T19:41:42.536Z,7.47
2022-11-15T19:44:11.191Z,7.03
2022-11-15T19:46:38.392Z,6.90
2022-11-15T19:49:07.824Z,6.82
2022-11-15T19:51:34.538Z,7.38
2022-11-15T19:54:06.450Z,7.28
2022-11-15T19:56:34.612Z,7.30
2022-11-15T19:59:02.425Z,6.63
2022-11-15T20:01:31.684Z,8.82
2022-11-15T20:03:59.600Z,7.75
2022-11-15T20:06:35.328Z,7.35
2022-11-15T20:09:02.523Z,7.20
2022-11-15T20:11:29.226Z,7.20
2022-11-15T20:14:02.311Z,8.45
2022-11-15T20:16:31.067Z,8.25
2022-11-15T20:18:57.706Z,7.90
2022-11-15T20:21:24.718Z,7.47
2022-11-15T20:23:52.157Z,7.65
2022-11-15T20:26:20.344Z,7.60
2022-11-15T20:28:47.969Z,7.95
2022-11-15T20:31:15.397Z,8.48
2022-11-15T20:33:42.152Z,8.73
2022-11-15T20:36:14.525Z,8.32
2022-11-15T20:38:41.604Z,8.43
2022-11-15T20:41:11.059Z,8.13
2022-11-15T20:43:37.890Z,8.27
2022-11-15T20:46:04.647Z,7.65
2022-11-15T20:48:31.904Z,7.13
2022-11-15T20:51:07.444Z,7.53
2022-11-15T20:53:34.886Z,7.03
2022-11-15T20:56:08.031Z,7.40
2022-11-15T20:58:36.539Z,8.18
2022-11-15T21:01:05.176Z,7.63
2022-11-15T21:03:33.147Z,8.95
2022-11-15T21:05:59.715Z,7.30
2022-11-15T21:08:26.383Z,7.95
2022-11-15T21:11:12.631Z,7.93
2022-11-15T21:13:39.506Z,7.88
2022-11-15T21:16:06.632Z,8.70
2022-11-15T21:18:33.478Z,7.45
2022-11-15T21:21:06.324Z,7.63
2022-11-15T21:23:33.469Z,8.18
2022-11-15T21:26:00.349Z,9.88
2022-11-15T21:28:26.985Z,10.73
2022-11-15T21:30:58.378Z,9.52
2022-11-15T21:33:27.568Z,10.43
2022-11-15T21:35:55.859Z,12.40
2022-11-15T21:38:27.768Z,9.25
2022-11-15T21:40:54.416Z,10.05
2022-11-15T21:43:21.376Z,10.00
2022-11-15T21:46:00.113Z,10.30
2022-11-15T21:48:28.304Z,10.60
2022-11-15T21:51:04.568Z,10.18
2022-11-15T21:53:32.102Z,8.85
2022-11-15T21:56:00.315Z,9.95
2022-11-15T21:58:27.850Z,9.55
2022-11-15T22:01:14.092Z,9.65
2022-11-15T22:03:41.659Z,9.20
2022-11-15T22:06:12.951Z,9.52
2022-11-15T22:08:43.323Z,9.68
2022-11-15T22:11:10.026Z,9.70
2022-11-15T22:13:36.906Z,8.55
2022-11-15T22:16:03.640Z,9.18
2022-11-15T22:18:31.098Z,8.38
2022-11-15T22:21:13.293Z,10.50
2022-11-15T22:23:40.821Z,10.60
2022-11-15T22:26:10.060Z,8.70
2022-11-15T22:28:37.049Z,9.02
2022-11-15T22:31:04.501Z,8.68
2022-11-15T22:33:33.120Z,9.10
2022-11-15T22:36:00.771Z,7.88
2022-11-15T22:38:28.536Z,7.38
2022-11-15T22:40:56.090Z,6.80
2022-11-15T22:43:24.800Z,7.38
2022-11-15T22:45:51.301Z,6.20
2022-11-15T22:48:20.329Z,6.45
2022-11-15T22:50:47.339Z,5.93
2022-11-15T22:53:14.054Z,6.00
2022-11-15T22:55:41.620Z,6.05
2022-11-15T22:58:08.839Z,6.38
2022-11-15T23:00:36.245Z,6.07
2022-11-15T23:03:03.715Z,5.15
2022-11-15T23:05:30.311Z,5.68
2022-11-15T23:07:56.981Z,5.35
2022-11-15T23:10:42.197Z,5.38
2022-11-15T23:13:18.951Z,5.97
2022-11-15T23:16:09.697Z,6.20
2022-11-15T23:18:38.546Z,6.28
2022-11-15T23:21:12.716Z,5.78
2022-11-15T23:23:39.999Z,6.38
2022-11-15T23:26:07.150Z,6.05
2022-11-15T23:28:34.832Z,5.55
2022-11-15T23:31:26.585Z,6.70
2022-11-15T23:33:59.147Z,6.20
2022-11-15T23:36:27.463Z,6.05
2022-11-15T23:38:54.154Z,6.60
2022-11-15T23:41:22.094Z,6.45
2022-11-15T23:43:48.634Z,5.97
2022-11-15T23:46:15.667Z,6.65
2022-11-15T23:48:42.564Z,5.72
2022-11-15T23:51:09.824Z,5.63
2022-11-15T23:53:36.891Z,5.28
2022-11-15T23:56:11.217Z,5.22
2022-11-15T23:58:38.043Z,4.70
